Time;durP1;ratioP1;P1;durP2;ratioP2;P2;SDS_P1;SDS_P2;PMS_P1;PMS_P2;Temp;Humidity;BMP_temperature;BMP_pressure;BME280_temperature;BME280_humidity;BME280_pressure;Samples;Min_cycle;Max_cycle;Signal;HPM_P1;HPM_P2
2022/04/04 00:00:53;;;;;;;;;;;;;;;;;;5016288;28;19996;-22
2022/04/04 00:03:20;;;;;;;;;;;;;;;;;;4998647;28;20423;-20
2022/04/04 00:05:47;;;;;;;;;;;;;;;;;;5016039;28;20044;-20
2022/04/04 00:08:14;;;;;;;;;;;;;;;;;;5015931;28;19996;-21
2022/04/04 00:10:40;;;;;;;;;;;;;;;;;;5015870;28;19917;-22
2022/04/04 00:13:06;;;;;;;;;;;;;;;;;;5015910;28;19937;-23
2022/04/04 00:15:32;;;;;;;;;;;;;;;;;;4998562;28;19913;-21
2022/04/04 00:17:58;;;;;;;;;;;;;;;;;;5015909;28;19970;-22
2022/04/04 00:20:25;;;;;;;;;;;;;;;;;;4998478;28;19963;-19
2022/04/04 00:22:51;;;;;;;;;;;;;;;;;;5015731;28;20268;-21
2022/04/04 00:25:17;;;;;;;;;;;;;;;;;;5015630;28;20012;-22
2022/04/04 00:27:44;;;;;;;;;;;;;;;;;;5015885;28;20249;-24
2022/04/04 00:30:10;;;;;;;;;;;;;;;;;;5015474;28;19913;-23
2022/04/04 00:32:37;;;;;;;;;;;;;;;;;;5015510;28;20357;-25
2022/04/04 00:35:03;;;;;;;;;;;;;;;;;;4998231;28;19917;-22
2022/04/04 00:37:29;;;;;;;;;;;;;;;;;;4998858;28;19913;-19
2022/04/04 00:39:55;;;;;;;;;;;;;;;;;;5015669;28;19936;-20
2022/04/04 00:42:21;;;;;;;;;;;;;;;;;;5015582;28;19916;-20
2022/04/04 00:44:47;;;;;;;;;;;;;;;;;;5015638;28;20296;-19
2022/04/04 00:47:13;;;;;;;;;;;;;;;;;;5015280;28;19976;-21
2022/04/04 00:49:40;;;;;;;;;;;;;;;;;;5015246;28;19913;-24
2022/04/04 00:52:06;;;;;;;;;;;;;;;;;;5015189;28;19924;-22
2022/04/04 00:54:32;;;;;;;;;;;;;;;;;;5015276;28;20011;-21
2022/04/04 00:56:58;;;;;;;;;;;;;;;;;;5015535;28;19913;-20
2022/04/04 00:59:24;;;;;;;;;;;;;;;;;;5015239;28;19956;-20
2022/04/04 01:01:50;;;;;;;;;;;;;;;;;;4997797;28;19918;-21
2022/04/04 01:04:16;;;;;;;;;;;;;;;;;;4997740;28;20014;-23
2022/04/04 01:06:43;;;;;;;;;;;;;;;;;;5015636;28;19910;-20
2022/04/04 01:09:14;;;;;;;;;;;;;;;;;;5015039;28;19925;-21
2022/04/04 01:11:40;;;;;;;;;;;;;;;;;;5014955;28;19910;-19
2022/04/04 01:14:06;;;;;;;;;;;;;;;;;;4997689;28;20297;-23
2022/04/04 01:16:32;;;;;;;;;;;;;;;;;;5015276;28;19913;-21
2022/04/04 01:18:58;;;;;;;;;;;;;;;;;;4997727;28;19909;-24
2022/04/04 01:21:24;;;;;;;;;;;;;;;;;;4997497;28;20460;-20
2022/04/04 01:23:50;;;;;;;;;;;;;;;;;;5012912;28;19957;-22
2022/04/04 01:26:16;;;;;;;;;;;;;;;;;;4977976;28;19953;-24
2022/04/04 01:28:42;;;;;;;;;;;;;;;;;;4995157;28;20335;-24
2022/04/04 01:31:08;;;;;;;;;;;;;;;;;;4995680;28;19921;-20
2022/04/04 01:33:34;;;;;;;;;;;;;;;;;;4995193;28;19910;-23
2022/04/04 01:36:00;;;;;;;;;;;;;;;;;;4995202;28;19914;-19
2022/04/04 01:38:26;;;;;;;;;;;;;;;;;;4995089;28;19918;-22
2022/04/04 01:40:52;;;;;;;;;;;;;;;;;;4995157;28;19964;-22
2022/04/04 01:43:18;;;;;;;;;;;;;;;;;;4995063;28;19925;-19
2022/04/04 01:48:29;;;;;;;;;;;;;;;;;;4995058;28;19920;-21
2022/04/04 01:50:55;;;;;;;;;;;;;;;;;;4995035;28;19914;-23
2022/04/04 01:53:27;;;;;;;;;;;;;;;;;;4994943;28;19928;-20
2022/04/04 01:55:53;;;;;;;;;;;;;;;;;;4977836;28;19948;-21
2022/04/04 01:58:19;;;;;;;;;;;;;;;;;;4994955;28;19914;-21
2022/04/04 02:00:45;;;;;;;;;;;;;;;;;;4994969;28;19924;-23
2022/04/04 02:03:11;;;;;;;;;;;;;;;;;;4995069;28;19924;-21
2022/04/04 02:05:37;;;;;;;;;;;;;;;;;;4995170;28;20333;-21
2022/04/04 02:08:03;;;;;;;;;;;;;;;;;;4995167;28;19914;-22
2022/04/04 02:10:29;;;;;;;;;;;;;;;;;;4994993;28;20013;-22
2022/04/04 02:12:55;;;;;;;;;;;;;;;;;;4995751;28;20320;-23
2022/04/04 02:15:21;;;;;;;;;;;;;;;;;;4998491;28;20238;-21
2022/04/04 02:17:47;;;;;;;;;;;;;;;;;;4998847;28;20282;-24
2022/04/04 02:20:14;;;;;;;;;;;;;;;;;;4998347;28;19960;-25
2022/04/04 02:22:40;;;;;;;;;;;;;;;;;;4980915;28;19913;-20
2022/04/04 02:25:06;;;;;;;;;;;;;;;;;;4998117;28;19958;-24
2022/04/04 02:27:32;;;;;;;;;;;;;;;;;;4998433;28;19917;-21
2022/04/04 02:29:57;;;;;;;;;;;;;;;;;;4998319;28;19949;-21
2022/04/04 02:32:23;;;;;;;;;;;;;;;;;;4980834;28;20260;-21
2022/04/04 02:34:49;;;;;;;;;;;;;;;;;;4998077;28;20293;-24
2022/04/04 02:37:16;;;;;;;;;;;;;;;;;;4998315;28;20309;-26
2022/04/04 02:39:42;;;;;;;;;;;;;;;;;;4980737;28;19936;-20
2022/04/04 02:42:08;;;;;;;;;;;;;;;;;;4997853;28;19914;-24
2022/04/04 02:44:34;;;;;;;;;;;;;;;;;;4998117;28;19910;-19
2022/04/04 02:47:00;;;;;;;;;;;;;;;;;;4998101;28;19918;-21
2022/04/04 02:49:28;;;;;;;;;;;;;;;;;;4997734;28;19922;-23
2022/04/04 02:51:54;;;;;;;;;;;;;;;;;;4997913;28;19964;-22
2022/04/04 02:54:20;;;;;;;;;;;;;;;;;;4997644;28;19909;-20
2022/04/04 02:56:46;;;;;;;;;;;;;;;;;;4980384;28;19918;-20
2022/04/04 02:59:12;;;;;;;;;;;;;;;;;;4997637;28;19924;-20
2022/04/04 03:01:38;;;;;;;;;;;;;;;;;;4997871;28;20017;-20
2022/04/04 03:04:04;;;;;;;;;;;;;;;;;;4997425;28;19914;-23
2022/04/04 03:06:30;;;;;;;;;;;;;;;;;;4997528;28;19940;-22
2022/04/04 03:08:56;;;;;;;;;;;;;;;;;;4980040;28;19929;-22
2022/04/04 03:11:22;;;;;;;;;;;;;;;;;;4997414;28;19913;-20
2022/04/04 03:13:48;;;;;;;;;;;;;;;;;;4997548;28;19920;-24
2022/04/04 03:16:14;;;;;;;;;;;;;;;;;;4997354;28;20341;-20
2022/04/04 03:18:40;;;;;;;;;;;;;;;;;;4997905;28;19914;-22
2022/04/04 03:21:06;;;;;;;;;;;;;;;;;;4997509;28;20008;-22
2022/04/04 03:23:33;;;;;;;;;;;;;;;;;;4997041;28;20314;-19
2022/04/04 03:25:59;;;;;;;;;;;;;;;;;;4996040;28;19922;-20
2022/04/04 03:28:25;;;;;;;;;;;;;;;;;;4979858;28;20304;-23
2022/04/04 03:30:51;;;;;;;;;;;;;;;;;;4997259;28;19917;-25
2022/04/04 03:33:17;;;;;;;;;;;;;;;;;;4997027;28;19921;-20
2022/04/04 03:35:43;;;;;;;;;;;;;;;;;;4997401;28;19914;-20
2022/04/04 03:38:10;;;;;;;;;;;;;;;;;;4997140;28;19910;-23
2022/04/04 03:40:37;;;;;;;;;;;;;;;;;;4996724;28;19914;-22
2022/04/04 03:43:03;;;;;;;;;;;;;;;;;;4996622;28;20380;-23
2022/04/04 03:45:29;;;;;;;;;;;;;;;;;;4996653;28;19913;-20
2022/04/04 03:47:55;;;;;;;;;;;;;;;;;;4979343;28;19915;-20
2022/04/04 03:50:21;;;;;;;;;;;;;;;;;;4996454;28;20009;-22
2022/04/04 03:52:53;;;;;;;;;;;;;;;;;;4979174;28;19918;-22
2022/04/04 03:55:19;;;;;;;;;;;;;;;;;;4996753;28;20268;-21
2022/04/04 03:57:45;;;;;;;;;;;;;;;;;;4996576;28;20366;-22
2022/04/04 04:00:11;;;;;;;;;;;;;;;;;;4995904;28;20034;-20
2022/04/04 04:02:37;;;;;;;;;;;;;;;;;;5403158;23;19957;-24
2022/04/04 04:05:03;;;;;;;;;;;;;;;;;;5015709;28;19956;-24
2022/04/04 04:07:31;;;;;;;;;;;;;;;;;;5015833;28;19921;-24
2022/04/04 04:09:58;;;;;;;;;;;;;;;;;;5015909;28;19975;-24
2022/04/04 04:12:24;;;;;;;;;;;;;;;;;;4997727;28;19909;-25
2022/04/04 04:14:52;;;;;;;;;;;;;;;;;;4997919;28;19914;-24
2022/04/04 04:17:19;;;;;;;;;;;;;;;;;;4998602;28;19920;-25
2022/04/04 04:22:29;;;;;;;;;;;;;;;;;;5014858;28;20088;-26
2022/04/04 04:24:55;;;;;;;;;;;;;;;;;;5015308;28;20248;-24
2022/04/04 04:27:23;;;;;;;;;;;;;;;;;;5014930;28;20019;-24
2022/04/04 04:29:49;;;;;;;;;;;;;;;;;;5014940;28;20004;-25
2022/04/04 04:32:15;;;;;;;;;;;;;;;;;;4997426;28;19924;-25
2022/04/04 04:34:46;;;;;;;;;;;;;;;;;;5014944;28;19910;-24
2022/04/04 04:37:12;;;;;;;;;;;;;;;;;;5014689;28;19922;-25
2022/04/04 04:39:38;;;;;;;;;;;;;;;;;;4996888;28;19913;-24
2022/04/04 04:42:05;;;;;;;;;;;;;;;;;;5014418;28;19921;-24
2022/04/04 04:44:31;;;;;;;;;;;;;;;;;;5014367;28;19952;-24
2022/04/04 04:49:42;;;;;;;;;;;;;;;;;;5014596;28;19980;-24
2022/04/04 04:52:09;;;;;;;;;;;;;;;;;;5014642;28;19967;-24
2022/04/04 04:54:35;;;;;;;;;;;;;;;;;;5014823;28;19909;-24
2022/04/04 04:57:01;;;;;;;;;;;;;;;;;;5014613;28;20212;-24
2022/04/04 04:59:29;;;;;;;;;;;;;;;;;;5014414;28;20240;-24
2022/04/04 05:01:55;;;;;;;;;;;;;;;;;;5014583;28;20366;-24
2022/04/04 05:04:22;;;;;;;;;;;;;;;;;;5014392;28;19921;-24
2022/04/04 05:06:49;;;;;;;;;;;;;;;;;;5014640;28;20272;-24
2022/04/04 05:09:16;;;;;;;;;;;;;;;;;;5014186;28;19948;-24
2022/04/04 05:11:43;;;;;;;;;;;;;;;;;;5014436;28;19914;-24
2022/04/04 05:14:16;;;;;;;;;;;;;;;;;;5014462;28;19928;-24
2022/04/04 05:19:27;;;;;;;;;;;;;;;;;;5014535;28;20260;-24
2022/04/04 05:21:54;;;;;;;;;;;;;;;;;;4996745;28;20014;-24
2022/04/04 05:24:20;;;;;;;;;;;;;;;;;;5014251;28;19910;-24
2022/04/04 05:26:47;;;;;;;;;;;;;;;;;;5014559;28;19918;-24
2022/04/04 05:29:17;;;;;;;;;;;;;;;;;;4996634;28;19924;-24
2022/04/04 05:34:34;;;;;;;;;;;;;;;;;;5014531;28;20356;-24
2022/04/04 05:37:01;;;;;;;;;;;;;;;;;;5014460;28;19913;-24
2022/04/04 05:39:27;;;;;;;;;;;;;;;;;;5014099;28;20256;-24
2022/04/04 05:41:53;;;;;;;;;;;;;;;;;;5014391;28;19909;-24
2022/04/04 05:44:19;;;;;;;;;;;;;;;;;;4996553;28;19987;-24
2022/04/04 05:46:45;;;;;;;;;;;;;;;;;;5013934;28;19961;-24
2022/04/04 05:49:11;;;;;;;;;;;;;;;;;;5017169;28;19924;-24
2022/04/04 05:51:37;;;;;;;;;;;;;;;;;;5017688;28;20000;-23
2022/04/04 05:54:05;;;;;;;;;;;;;;;;;;5017811;28;19918;-24
2022/04/04 05:56:32;;;;;;;;;;;;;;;;;;5017595;28;20245;-23
2022/04/04 05:58:59;;;;;;;;;;;;;;;;;;5017487;28;19913;-23
2022/04/04 06:01:25;;;;;;;;;;;;;;;;;;5017400;28;19924;-24
2022/04/04 06:03:51;;;;;;;;;;;;;;;;;;5017139;28;19921;-24
2022/04/04 06:06:17;;;;;;;;;;;;;;;;;;5017433;28;19996;-23
2022/04/04 06:08:43;;;;;;;;;;;;;;;;;;5017499;28;19913;-23
2022/04/04 06:11:09;;;;;;;;;;;;;;;;;;5017243;28;19920;-23
2022/04/04 06:13:35;;;;;;;;;;;;;;;;;;4999305;28;19910;-23
2022/04/04 06:16:01;;;;;;;;;;;;;;;;;;4999709;28;19921;-23
2022/04/04 06:18:27;;;;;;;;;;;;;;;;;;4999138;28;19913;-23
2022/04/04 06:20:53;;;;;;;;;;;;;;;;;;5016643;28;20004;-23
2022/04/04 06:23:20;;;;;;;;;;;;;;;;;;5016785;28;19913;-24
2022/04/04 06:25:49;;;;;;;;;;;;;;;;;;5016704;28;20289;-24
2022/04/04 06:28:15;;;;;;;;;;;;;;;;;;5016375;28;19913;-24
2022/04/04 06:30:41;;;;;;;;;;;;;;;;;;5016164;28;19962;-24
2022/04/04 06:33:07;;;;;;;;;;;;;;;;;;5016456;28;19914;-24
2022/04/04 06:35:33;;;;;;;;;;;;;;;;;;4998957;28;19936;-24
2022/04/04 06:38:02;;;;;;;;;;;;;;;;;;5016940;28;20259;-24
2022/04/04 06:40:28;;;;;;;;;;;;;;;;;;5017253;28;20004;-23
2022/04/04 06:42:56;;;;;;;;;;;;;;;;;;4999794;28;19979;-23
2022/04/04 06:45:22;;;;;;;;;;;;;;;;;;5017325;28;20340;-23
2022/04/04 06:47:48;;;;;;;;;;;;;;;;;;4999549;28;19913;-23
2022/04/04 06:50:14;;;;;;;;;;;;;;;;;;5016879;28;19952;-23
2022/04/04 06:52:40;;;;;;;;;;;;;;;;;;5016554;28;20321;-23
2022/04/04 06:55:06;;;;;;;;;;;;;;;;;;4999294;28;19955;-23
2022/04/04 06:57:32;;;;;;;;;;;;;;;;;;5016438;28;19917;-23
2022/04/04 06:59:58;;;;;;;;;;;;;;;;;;5015997;28;19920;-24
2022/04/04 07:02:32;;;;;;;;;;;;;;;;;;5015925;28;20076;-24
2022/04/04 07:04:59;;;;;;;;;;;;;;;;;;4999077;28;19917;-24
2022/04/04 07:07:25;;;;;;;;;;;;;;;;;;5016353;28;19924;-24
2022/04/04 07:09:51;;;;;;;;;;;;;;;;;;5016266;28;19945;-24
2022/04/04 07:12:18;;;;;;;;;;;;;;;;;;5016288;28;19993;-24
2022/04/04 07:14:44;;;;;;;;;;;;;;;;;;5016454;28;19932;-24
2022/04/04 07:17:10;;;;;;;;;;;;;;;;;;4998895;28;19913;-24
2022/04/04 07:19:37;;;;;;;;;;;;;;;;;;5016077;28;19913;-24
2022/04/04 07:22:03;;;;;;;;;;;;;;;;;;5016116;28;19913;-24
2022/04/04 07:24:29;;;;;;;;;;;;;;;;;;4998655;28;19910;-24
2022/04/04 07:26:56;;;;;;;;;;;;;;;;;;5015987;28;19914;-24
2022/04/04 07:29:22;;;;;;;;;;;;;;;;;;5015802;28;20012;-24
2022/04/04 07:31:48;;;;;;;;;;;;;;;;;;5016203;28;20367;-24
2022/04/04 07:34:14;;;;;;;;;;;;;;;;;;5016077;28;20266;-24
2022/04/04 07:36:40;;;;;;;;;;;;;;;;;;5015809;28;19923;-24
2022/04/04 07:39:08;;;;;;;;;;;;;;;;;;5016320;28;19914;-23
2022/04/04 07:41:34;;;;;;;;;;;;;;;;;;5015647;28;19913;-23
2022/04/04 07:44:01;;;;;;;;;;;;;;;;;;5015347;28;19909;-23
2022/04/04 07:46:27;;;;;;;;;;;;;;;;;;5015412;28;20339;-23
2022/04/04 07:48:57;;;;;;;;;;;;;;;;;;5015584;28;20247;-25
2022/04/04 07:51:23;;;;;;;;;;;;;;;;;;5015747;28;20348;-25
2022/04/04 07:53:50;;;;;;;;;;;;;;;;;;5015351;28;19910;-26
2022/04/04 07:56:16;;;;;;;;;;;;;;;;;;4998282;28;19936;-25
2022/04/04 07:58:42;;;;;;;;;;;;;;;;;;5015656;28;20340;-25
2022/04/04 08:01:08;;;;;;;;;;;;;;;;;;4997789;28;19913;-23
2022/04/04 08:03:34;;;;;;;;;;;;;;;;;;5015071;28;20005;-25
2022/04/04 08:06:13;;;;;;;;;;;;;;;;;;5015204;28;19914;-25
2022/04/04 08:08:43;;;;;;;;;;;;;;;;;;5015360;28;20274;-23
2022/04/04 08:11:11;;;;;;;;;;;;;;;;;;5014722;28;19918;-23
2022/04/04 08:13:42;;;;;;;;;;;;;;;;;;4997848;28;19918;-23
2022/04/04 08:16:09;;;;;;;;;;;;;;;;;;5014917;28;19922;-23
2022/04/04 08:18:35;;;;;;;;;;;;;;;;;;5015331;28;19910;-23
2022/04/04 08:21:01;;;;;;;;;;;;;;;;;;5014896;28;19914;-24
2022/04/04 08:23:29;;;;;;;;;;;;;;;;;;5015597;28;19983;-23
2022/04/04 08:25:56;;;;;;;;;;;;;;;;;;5014926;28;19975;-23
2022/04/04 08:28:22;;;;;;;;;;;;;;;;;;5014993;28;20102;-23
2022/04/04 08:30:50;;;;;;;;;;;;;;;;;;5014858;28;19924;-24
2022/04/04 08:33:16;;;;;;;;;;;;;;;;;;4997433;28;20055;-24
2022/04/04 08:35:42;;;;;;;;;;;;;;;;;;5014782;28;20355;-24
2022/04/04 08:38:08;;;;;;;;;;;;;;;;;;5014591;28;19943;-24
2022/04/04 08:40:35;;;;;;;;;;;;;;;;;;5014333;28;20004;-24
2022/04/04 08:43:01;;;;;;;;;;;;;;;;;;5014018;28;19944;-24
2022/04/04 08:45:27;;;;;;;;;;;;;;;;;;5014229;28;20030;-25
2022/04/04 08:47:53;;;;;;;;;;;;;;;;;;4996590;28;19913;-24
2022/04/04 08:50:19;;;;;;;;;;;;;;;;;;5014082;28;19921;-24
2022/04/04 08:52:45;;;;;;;;;;;;;;;;;;5014079;28;19914;-24
2022/04/04 08:55:13;;;;;;;;;;;;;;;;;;5014085;28;20332;-24
2022/04/04 08:57:39;;;;;;;;;;;;;;;;;;4996618;28;19924;-24
2022/04/04 09:00:05;;;;;;;;;;;;;;;;;;5013942;28;19909;-24
2022/04/04 09:02:32;;;;;;;;;;;;;;;;;;5013654;28;19949;-24
2022/04/04 09:04:58;;;;;;;;;;;;;;;;;;4996550;28;19975;-24
2022/04/04 09:07:24;;;;;;;;;;;;;;;;;;5013810;28;20260;-24
2022/04/04 09:09:50;;;;;;;;;;;;;;;;;;4996337;28;19914;-24
2022/04/04 09:12:16;;;;;;;;;;;;;;;;;;5013692;28;19933;-24
2022/04/04 09:14:43;;;;;;;;;;;;;;;;;;4996377;28;19996;-24
2022/04/04 09:17:09;;;;;;;;;;;;;;;;;;5013721;28;19944;-24
2022/04/04 09:19:35;;;;;;;;;;;;;;;;;;5014055;28;19910;-24
2022/04/04 09:22:01;;;;;;;;;;;;;;;;;;4997196;28;19913;-24
2022/04/04 09:24:28;;;;;;;;;;;;;;;;;;5018190;28;19914;-24
2022/04/04 09:26:54;;;;;;;;;;;;;;;;;;5018250;28;19992;-24
2022/04/04 09:29:20;;;;;;;;;;;;;;;;;;5018658;28;20000;-24
2022/04/04 09:31:46;;;;;;;;;;;;;;;;;;5018121;28;20284;-24
2022/04/04 09:34:12;;;;;;;;;;;;;;;;;;5017942;28;19962;-24
2022/04/04 09:36:38;;;;;;;;;;;;;;;;;;5018371;28;19936;-24
2022/04/04 09:39:05;;;;;;;;;;;;;;;;;;5018022;28;19914;-24
2022/04/04 09:41:31;;;;;;;;;;;;;;;;;;5018432;28;19913;-24
2022/04/04 09:43:57;;;;;;;;;;;;;;;;;;5017953;28;19913;-23
2022/04/04 09:46:23;;;;;;;;;;;;;;;;;;5017981;28;19921;-24
2022/04/04 09:48:49;;;;;;;;;;;;;;;;;;5017816;28;20391;-25
2022/04/04 09:51:15;;;;;;;;;;;;;;;;;;5018153;28;19969;-25
2022/04/04 09:53:42;;;;;;;;;;;;;;;;;;5017882;28;20200;-25
2022/04/04 09:56:09;;;;;;;;;;;;;;;;;;5017901;28;19933;-23
2022/04/04 09:58:38;;;;;;;;;;;;;;;;;;5017741;28;20282;-23
2022/04/04 10:01:04;;;;;;;;;;;;;;;;;;5000083;28;19913;-23
2022/04/04 10:03:30;;;;;;;;;;;;;;;;;;4999911;28;19932;-23
2022/04/04 10:05:56;;;;;;;;;;;;;;;;;;5017631;28;19914;-23
2022/04/04 10:08:22;;;;;;;;;;;;;;;;;;5018272;28;20353;-23
2022/04/04 10:10:49;;;;;;;;;;;;;;;;;;5017713;28;20311;-23
2022/04/04 10:13:15;;;;;;;;;;;;;;;;;;5017648;28;19913;-23
2022/04/04 10:15:41;;;;;;;;;;;;;;;;;;5017331;28;19953;-23
2022/04/04 10:18:07;;;;;;;;;;;;;;;;;;4999847;28;19914;-23
2022/04/04 10:20:33;;;;;;;;;;;;;;;;;;5017828;28;19944;-22
2022/04/04 10:22:59;;;;;;;;;;;;;;;;;;5017379;28;20324;-24
2022/04/04 10:25:25;;;;;;;;;;;;;;;;;;5017499;28;20349;-24
2022/04/04 10:27:52;;;;;;;;;;;;;;;;;;5017271;28;20008;-30
2022/04/04 10:30:18;;;;;;;;;;;;;;;;;;5017054;28;20379;-24
2022/04/04 10:32:44;;;;;;;;;;;;;;;;;;5016947;28;20264;-24
2022/04/04 10:35:11;;;;;;;;;;;;;;;;;;5016627;28;19909;-24
2022/04/04 10:37:37;;;;;;;;;;;;;;;;;;5017163;28;20365;-24
2022/04/04 10:40:03;;;;;;;;;;;;;;;;;;5016818;28;20012;-24
2022/04/04 10:42:30;;;;;;;;;;;;;;;;;;5016656;28;20052;-24
2022/04/04 10:44:56;;;;;;;;;;;;;;;;;;5017128;28;19957;-24
2022/04/04 10:47:22;;;;;;;;;;;;;;;;;;5017029;28;20237;-24
2022/04/04 10:49:48;;;;;;;;;;;;;;;;;;5017150;28;19918;-24
2022/04/04 10:52:14;;;;;;;;;;;;;;;;;;4999512;28;19993;-24
2022/04/04 10:54:40;;;;;;;;;;;;;;;;;;5017012;28;19918;-24
2022/04/04 10:57:07;;;;;;;;;;;;;;;;;;4999176;28;20349;-24
2022/04/04 10:59:33;;;;;;;;;;;;;;;;;;5016211;28;20000;-24
2022/04/04 11:02:01;;;;;;;;;;;;;;;;;;5015949;28;19947;-24
2022/04/04 11:04:27;;;;;;;;;;;;;;;;;;5015423;28;19921;-24
2022/04/04 11:09:38;;;;;;;;;;;;;;;;;;5015721;28;19921;-25
2022/04/04 11:12:11;;;;;;;;;;;;;;;;;;5015618;28;19914;-25
2022/04/04 11:14:39;;;;;;;;;;;;;;;;;;4998859;28;19919;-24
2022/04/04 11:17:06;;;;;;;;;;;;;;;;;;5015663;28;19925;-24
2022/04/04 11:19:35;;;;;;;;;;;;;;;;;;5015879;28;20005;-28
2022/04/04 11:22:02;;;;;;;;;;;;;;;;;;4998270;28;20307;-24
2022/04/04 11:24:28;;;;;;;;;;;;;;;;;;5016073;28;20292;-23
2022/04/04 11:26:54;;;;;;;;;;;;;;;;;;5016164;28;19953;-24
2022/04/04 11:29:23;;;;;;;;;;;;;;;;;;5016419;28;19918;-24
2022/04/04 11:31:50;;;;;;;;;;;;;;;;;;5016220;28;19913;-24
2022/04/04 11:34:17;;;;;;;;;;;;;;;;;;5016146;28;19949;-24
2022/04/04 11:36:44;;;;;;;;;;;;;;;;;;5016266;28;20003;-24
2022/04/04 11:39:10;;;;;;;;;;;;;;;;;;5016048;28;20256;-24
2022/04/04 11:41:37;;;;;;;;;;;;;;;;;;5016125;28;20379;-24
2022/04/04 11:44:03;;;;;;;;;;;;;;;;;;5015611;28;20004;-24
2022/04/04 11:46:32;;;;;;;;;;;;;;;;;;5015777;28;19978;-25
2022/04/04 11:49:07;;;;;;;;;;;;;;;;;;5017533;28;19936;-25
2022/04/04 11:51:36;;;;;;;;;;;;;;;;;;5015815;28;20190;-24
2022/04/04 11:54:02;;;;;;;;;;;;;;;;;;5016200;28;20208;-24
2022/04/04 11:56:31;;;;;;;;;;;;;;;;;;5016125;28;19913;-24
2022/04/04 11:59:00;;;;;;;;;;;;;;;;;;5015764;28;20182;-25
2022/04/04 12:01:27;;;;;;;;;;;;;;;;;;4999697;28;19914;-25
2022/04/04 12:03:55;;;;;;;;;;;;;;;;;;5000605;28;19922;-25
2022/04/04 12:06:22;;;;;;;;;;;;;;;;;;5017942;28;20035;-25
2022/04/04 12:08:50;;;;;;;;;;;;;;;;;;5000278;28;19920;-25
2022/04/04 12:14:08;;;;;;;;;;;;;;;;;;5015500;28;20333;-25
2022/04/04 12:16:34;;;;;;;;;;;;;;;;;;5015361;28;20008;-25
2022/04/04 12:19:01;;;;;;;;;;;;;;;;;;5015618;28;19910;-27
2022/04/04 12:21:27;;;;;;;;;;;;;;;;;;4997987;28;19921;-27
2022/04/04 12:26:40;;;;;;;;;;;;;;;;;;5015555;28;19984;-25
2022/04/04 12:34:48;;;;;;;;;;;;;;;;;;5015657;28;19924;-25
2022/04/04 12:37:15;;;;;;;;;;;;;;;;;;5015893;28;19913;-25
2022/04/04 12:39:42;;;;;;;;;;;;;;;;;;5015150;28;19925;-25
2022/04/04 12:42:09;;;;;;;;;;;;;;;;;;5014773;28;19920;-26
2022/04/04 12:47:27;;;;;;;;;;;;;;;;;;5015393;28;19924;-25
2022/04/04 12:49:54;;;;;;;;;;;;;;;;;;5014955;28;19925;-25
2022/04/04 12:52:20;;;;;;;;;;;;;;;;;;5015106;28;19913;-25
2022/04/04 12:57:31;;;;;;;;;;;;;;;;;;5014998;28;19960;-25
2022/04/04 13:00:01;;;;;;;;;;;;;;;;;;5014448;28;19913;-24
2022/04/04 13:02:28;;;;;;;;;;;;;;;;;;5014419;28;20375;-25
2022/04/04 13:07:46;;;;;;;;;;;;;;;;;;5014875;28;19982;-25
2022/04/04 13:13:05;;;;;;;;;;;;;;;;;;5014758;28;19971;-25
2022/04/04 13:15:31;;;;;;;;;;;;;;;;;;5015115;28;19917;-25
2022/04/04 13:17:58;;;;;;;;;;;;;;;;;;5014269;28;19914;-25
2022/04/04 13:20:25;;;;;;;;;;;;;;;;;;5014409;28;19914;-25
2022/04/04 13:22:52;;;;;;;;;;;;;;;;;;5014411;28;19913;-25
2022/04/04 13:25:18;;;;;;;;;;;;;;;;;;5014371;28;20387;-25
2022/04/04 13:27:46;;;;;;;;;;;;;;;;;;5013549;28;20255;-25
2022/04/04 13:30:12;;;;;;;;;;;;;;;;;;5014293;28;20013;-25
2022/04/04 13:32:40;;;;;;;;;;;;;;;;;;5014180;28;19964;-25
2022/04/04 13:35:06;;;;;;;;;;;;;;;;;;4996794;28;19924;-25
2022/04/04 13:37:32;;;;;;;;;;;;;;;;;;5014217;28;20289;-25
2022/04/04 13:39:59;;;;;;;;;;;;;;;;;;5014060;28;19914;-25
2022/04/04 13:42:25;;;;;;;;;;;;;;;;;;5013922;28;20000;-25
2022/04/04 13:47:42;;;;;;;;;;;;;;;;;;5014072;28;19940;-25
2022/04/04 13:52:53;;;;;;;;;;;;;;;;;;5014153;28;19921;-25
2022/04/04 13:55:20;;;;;;;;;;;;;;;;;;5014536;28;19914;-25
2022/04/04 13:57:46;;;;;;;;;;;;;;;;;;5014339;28;20000;-25
2022/04/04 14:00:13;;;;;;;;;;;;;;;;;;5014300;28;20253;-26
2022/04/04 14:02:43;;;;;;;;;;;;;;;;;;5014202;28;19909;-25
2022/04/04 14:05:14;;;;;;;;;;;;;;;;;;4996757;28;20448;-25
2022/04/04 14:07:40;;;;;;;;;;;;;;;;;;5013602;28;20017;-25
2022/04/04 14:12:58;;;;;;;;;;;;;;;;;;5017533;28;19924;-25
2022/04/04 14:15:26;;;;;;;;;;;;;;;;;;5000307;28;20312;-25
2022/04/04 14:17:52;;;;;;;;;;;;;;;;;;5017848;28;19917;-25
2022/04/04 14:20:19;;;;;;;;;;;;;;;;;;5017857;28;20036;-25
2022/04/04 14:22:45;;;;;;;;;;;;;;;;;;5017534;28;20368;-25
2022/04/04 14:25:11;;;;;;;;;;;;;;;;;;5017976;28;19913;-25
2022/04/04 14:27:38;;;;;;;;;;;;;;;;;;5017585;28;19935;-25
2022/04/04 14:32:57;;;;;;;;;;;;;;;;;;5017554;28;20004;-26
2022/04/04 14:35:31;;;;;;;;;;;;;;;;;;5033188;28;19917;-26
2022/04/04 14:37:58;;;;;;;;;;;;;;;;;;5036968;28;19948;-26
2022/04/04 14:40:25;;;;;;;;;;;;;;;;;;5036837;28;19940;-25
2022/04/04 14:42:51;;;;;;;;;;;;;;;;;;5036478;28;19913;-25
2022/04/04 14:45:17;;;;;;;;;;;;;;;;;;5036906;28;19997;-25
2022/04/04 14:47:45;;;;;;;;;;;;;;;;;;5036745;28;19913;-25
2022/04/04 14:50:11;;;;;;;;;;;;;;;;;;5036499;28;19975;-25
2022/04/04 14:52:39;;;;;;;;;;;;;;;;;;5019049;28;19913;-25
2022/04/04 14:55:06;;;;;;;;;;;;;;;;;;5036599;28;19913;-25
2022/04/04 14:57:32;;;;;;;;;;;;;;;;;;5037021;28;20291;-25
2022/04/04 15:00:03;;;;;;;;;;;;;;;;;;5036195;28;19909;-25
2022/04/04 15:02:29;;;;;;;;;;;;;;;;;;5036166;28;19920;-25
2022/04/04 15:04:55;;;;;;;;;;;;;;;;;;5036341;28;19925;-25
2022/04/04 15:07:22;;;;;;;;;;;;;;;;;;5036346;28;19966;-25
2022/04/04 15:09:50;;;;;;;;;;;;;;;;;;5036091;28;19917;-25
2022/04/04 15:12:16;;;;;;;;;;;;;;;;;;5035916;28;20012;-24
2022/04/04 15:14:42;;;;;;;;;;;;;;;;;;5035850;28;19917;-25
2022/04/04 15:17:08;;;;;;;;;;;;;;;;;;5036137;28;20205;-25
2022/04/04 15:19:34;;;;;;;;;;;;;;;;;;5035588;28;19916;-25
2022/04/04 15:22:01;;;;;;;;;;;;;;;;;;5035758;28;19923;-25
2022/04/04 15:24:27;;;;;;;;;;;;;;;;;;5036074;28;20028;-25
2022/04/04 15:26:53;;;;;;;;;;;;;;;;;;5035969;28;19917;-25
2022/04/04 15:29:20;;;;;;;;;;;;;;;;;;5035793;28;20232;-25
2022/04/04 15:31:46;;;;;;;;;;;;;;;;;;5017953;28;19960;-25
2022/04/04 15:34:12;;;;;;;;;;;;;;;;;;5035493;28;20104;-25
2022/04/04 15:36:39;;;;;;;;;;;;;;;;;;5035476;28;19925;-25
2022/04/04 15:39:06;;;;;;;;;;;;;;;;;;5036007;28;19909;-25
2022/04/04 15:41:32;;;;;;;;;;;;;;;;;;5018175;28;19913;-25
2022/04/04 15:43:59;;;;;;;;;;;;;;;;;;5035791;28;20004;-25
2022/04/04 15:46:30;;;;;;;;;;;;;;;;;;5018054;28;19920;-24
2022/04/04 15:48:56;;;;;;;;;;;;;;;;;;5035758;28;19915;-25
2022/04/04 15:51:23;;;;;;;;;;;;;;;;;;5018307;28;19960;-25
2022/04/04 15:53:51;;;;;;;;;;;;;;;;;;5035669;28;19924;-25
2022/04/04 15:56:20;;;;;;;;;;;;;;;;;;5018197;28;20323;-25
2022/04/04 15:58:47;;;;;;;;;;;;;;;;;;5035563;28;19909;-25
2022/04/04 16:01:13;;;;;;;;;;;;;;;;;;5018010;28;19913;-25
2022/04/04 16:03:42;;;;;;;;;;;;;;;;;;5035240;28;19944;-25
2022/04/04 16:06:11;;;;;;;;;;;;;;;;;;5018003;28;20378;-25
2022/04/04 16:08:46;;;;;;;;;;;;;;;;;;5035364;28;20455;-25
2022/04/04 16:14:05;;;;;;;;;;;;;;;;;;5035190;28;19924;-25
2022/04/04 16:16:32;;;;;;;;;;;;;;;;;;5035360;28;19913;-25
2022/04/04 16:21:50;;;;;;;;;;;;;;;;;;5034921;28;20354;-23
2022/04/04 16:24:17;;;;;;;;;;;;;;;;;;5034822;28;20347;-24
2022/04/04 16:26:44;;;;;;;;;;;;;;;;;;5035125;28;20182;-24
2022/04/04 16:29:12;;;;;;;;;;;;;;;;;;5034967;28;20260;-25
2022/04/04 16:31:40;;;;;;;;;;;;;;;;;;5016751;28;20263;-24
2022/04/04 16:34:08;;;;;;;;;;;;;;;;;;5017685;28;19964;-24
2022/04/04 16:36:37;;;;;;;;;;;;;;;;;;5035401;28;19924;-25
2022/04/04 16:39:06;;;;;;;;;;;;;;;;;;5034868;28;19917;-25
2022/04/04 16:41:59;;;;;;;;;;;;;;;;;;5035033;28;20026;-25
2022/04/04 16:44:25;;;;;;;;;;;;;;;;;;5034266;28;19913;-25
2022/04/04 16:46:54;;;;;;;;;;;;;;;;;;5034688;28;19924;-25
2022/04/04 16:49:20;;;;;;;;;;;;;;;;;;5034369;28;20252;-25
2022/04/04 16:51:46;;;;;;;;;;;;;;;;;;5034238;28;19968;-25
2022/04/04 16:54:12;;;;;;;;;;;;;;;;;;5034429;28;19912;-25
2022/04/04 16:59:23;;;;;;;;;;;;;;;;;;5034997;28;19923;-24
2022/04/04 17:01:50;;;;;;;;;;;;;;;;;;5034180;28;19943;-25
2022/04/04 17:04:19;;;;;;;;;;;;;;;;;;4958844;28;20015;-24
2022/04/04 17:06:45;;;;;;;;;;;;;;;;;;5034632;28;19925;-24
2022/04/04 17:09:12;;;;;;;;;;;;;;;;;;5034249;28;20359;-25
2022/04/04 17:11:39;;;;;;;;;;;;;;;;;;5034269;28;19909;-25
2022/04/04 17:14:05;;;;;;;;;;;;;;;;;;5033865;28;20236;-25
2022/04/04 17:16:31;;;;;;;;;;;;;;;;;;5016135;28;19913;-25
2022/04/04 17:18:57;;;;;;;;;;;;;;;;;;5033956;28;19909;-26
2022/04/04 17:21:23;;;;;;;;;;;;;;;;;;5033849;28;20047;-24
2022/04/04 17:23:50;;;;;;;;;;;;;;;;;;5033616;28;19959;-25
2022/04/04 17:26:16;;;;;;;;;;;;;;;;;;5034207;28;20225;-25
2022/04/04 17:28:43;;;;;;;;;;;;;;;;;;5033986;28;19959;-24
2022/04/04 17:31:09;;;;;;;;;;;;;;;;;;5033796;28;19917;-24
2022/04/04 17:33:37;;;;;;;;;;;;;;;;;;5033716;28;19913;-24
2022/04/04 17:36:03;;;;;;;;;;;;;;;;;;5033573;28;19913;-24
2022/04/04 17:38:30;;;;;;;;;;;;;;;;;;5033785;28;19941;-25
2022/04/04 17:40:56;;;;;;;;;;;;;;;;;;5033342;28;19916;-24